Time;durP1;ratioP1;P1;durP2;ratioP2;P2;SDS_P1;SDS_P2;PMS_P1;PMS_P2;Temp;Humidity;BMP_temperature;BMP_pressure;BME280_temperature;BME280_humidity;BME280_pressure;Samples;Min_cycle;Max_cycle;Signal;HPM_P1;HPM_P2
2020/12/01 00:01:51;;;;;;;20.80;13.60;;;7.10;96.50;;;;;;5038356;28;20409;-81
2020/12/01 00:04:18;;;;;;;31.27;15.45;;;7.10;96.50;;;;;;5037691;28;20064;-80
2020/12/01 00:06:45;;;;;;;22.92;13.75;;;7.10;96.50;;;;;;5037262;28;20495;-80
2020/12/01 00:09:12;;;;;;;23.65;14.45;;;7.10;96.50;;;;;;5038712;28;20761;-81
2020/12/01 00:11:39;;;;;;;21.60;12.07;;;7.20;96.50;;;;;;5055308;28;20039;-81
2020/12/01 00:14:06;;;;;;;18.88;10.80;;;7.20;96.50;;;;;;5037797;28;20037;-83
2020/12/01 00:16:32;;;;;;;28.23;13.52;;;7.20;96.50;;;;;;5038467;28;20052;-81
2020/12/01 00:18:59;;;;;;;20.50;11.38;;;7.20;96.50;;;;;;5037863;28;20028;-83
2020/12/01 00:21:26;;;;;;;22.73;13.23;;;7.20;96.50;;;;;;5069828;28;20040;-83
2020/12/01 00:23:53;;;;;;;29.40;14.02;;;7.30;96.50;;;;;;5053859;28;20840;-83
2020/12/01 00:26:20;;;;;;;26.55;13.50;;;7.30;96.50;;;;;;5054475;28;20047;-82
2020/12/01 00:28:48;;;;;;;32.58;17.65;;;7.30;96.50;;;;;;5038382;28;20063;-81
2020/12/01 00:31:16;;;;;;;31.45;15.63;;;7.20;96.50;;;;;;5054442;28;20040;-83
2020/12/01 00:33:43;;;;;;;35.17;16.10;;;7.10;96.50;;;;;;5052752;28;20052;-81
2020/12/01 00:36:10;;;;;;;34.88;15.90;;;7.10;96.50;;;;;;5037665;28;20495;-83
2020/12/01 00:38:36;;;;;;;34.90;15.00;;;7.10;96.80;;;;;;5021677;28;20040;-81
2020/12/01 00:41:03;;;;;;;36.67;15.80;;;7.10;96.60;;;;;;5053884;28;20044;-81
2020/12/01 00:43:29;;;;;;;25.55;15.05;;;7.10;96.60;;;;;;5037017;28;20040;-81
2020/12/01 00:45:56;;;;;;;27.60;14.52;;;7.10;96.60;;;;;;5054373;28;20503;-83
2020/12/01 00:48:23;;;;;;;28.35;13.88;;;7.10;96.70;;;;;;5037632;28;20044;-83
2020/12/01 00:50:49;;;;;;;27.40;13.52;;;7.10;96.70;;;;;;5059023;28;20503;-83
2020/12/01 00:53:16;;;;;;;36.20;14.35;;;7.10;96.70;;;;;;5020888;28;20037;-83
2020/12/01 00:55:44;;;;;;;22.95;11.98;;;7.20;96.70;;;;;;5036664;28;20525;-82
2020/12/01 00:58:10;;;;;;;24.25;13.27;;;7.20;96.70;;;;;;5021389;28;20039;-82
2020/12/01 01:00:56;;;;;;;28.73;14.95;;;7.20;96.70;;;;;;5039904;28;20036;-82
2020/12/01 01:03:25;;;;;;;66.60;21.70;;;7.20;96.60;;;;;;5037253;28;20048;-80
2020/12/01 01:05:51;;;;;;;40.88;20.88;;;7.20;96.60;;;;;;5036263;28;20045;-82
2020/12/01 01:08:18;;;;;;;33.55;18.98;;;7.20;96.70;;;;;;5047149;28;20525;-82
2020/12/01 01:10:44;;;;;;;34.53;18.33;;;7.20;96.70;;;;;;5022870;28;20119;-81
2020/12/01 01:13:11;;;;;;;35.80;19.05;;;7.20;96.70;;;;;;5037617;28;20476;-82
2020/12/01 01:15:37;;;;;;;29.42;15.15;;;7.30;96.70;;;;;;5037345;28;20483;-81
2020/12/01 01:18:04;;;;;;;33.15;19.17;;;7.30;96.70;;;;;;5038579;28;20040;-81
2020/12/01 01:20:31;;;;;;;27.50;16.02;;;7.30;96.70;;;;;;5052352;28;20040;-81
2020/12/01 01:22:57;;;;;;;27.65;14.80;;;7.30;96.80;;;;;;5064204;28;20044;-80
2020/12/01 01:25:24;;;;;;;21.15;11.55;;;7.40;96.90;;;;;;5065879;28;20055;-80
2020/12/01 01:27:51;;;;;;;19.27;10.32;;;7.50;96.80;;;;;;5055461;28;20067;-81
2020/12/01 01:30:20;;;;;;;18.13;10.70;;;7.50;96.80;;;;;;5035936;28;20593;-82
2020/12/01 01:32:47;;;;;;;15.45;8.63;;;7.50;96.80;;;;;;5037388;28;20029;-81
2020/12/01 01:35:14;;;;;;;14.02;9.18;;;7.50;96.80;;;;;;5038977;28;20574;-80
2020/12/01 01:37:41;;;;;;;19.45;9.70;;;7.60;96.80;;;;;;5049736;28;20036;-80
2020/12/01 01:40:15;;;;;;;19.67;9.70;;;7.60;96.80;;;;;;5038462;28;20051;-83
2020/12/01 01:42:44;;;;;;;23.17;11.35;;;7.60;96.80;;;;;;5055337;28;20048;-83
2020/12/01 01:45:11;;;;;;;18.50;9.88;;;7.60;96.80;;;;;;5055429;28;20043;-80
2020/12/01 01:47:38;;;;;;;15.38;8.63;;;7.50;96.80;;;;;;5070342;28;20509;-82
2020/12/01 01:50:18;;;;;;;16.85;8.77;;;7.50;96.80;;;;;;5037723;28;20395;-81
2020/12/01 01:52:49;;;;;;;20.23;9.55;;;7.50;96.80;;;;;;5051293;28;20029;-80
2020/12/01 01:55:27;;;;;;;22.60;8.93;;;7.40;96.80;;;;;;5034771;28;20033;-80
2020/12/01 01:58:04;;;;;;;17.83;7.32;;;7.40;96.90;;;;;;5049230;28;20491;-80
2020/12/01 02:00:59;;;;;;;16.98;7.22;;;7.30;96.90;;;;;;5031071;28;20033;-80
2020/12/01 02:03:33;;;;;;;15.82;6.05;;;7.20;96.90;;;;;;5039032;28;20056;-83
2020/12/01 02:06:00;;;;;;;16.75;6.30;;;7.20;96.90;;;;;;5048427;28;20063;-80
2020/12/01 02:08:28;;;;;;;17.42;5.93;;;7.20;97.00;;;;;;5034515;28;20041;-82
2020/12/01 02:10:56;;;;;;;20.75;6.32;;;7.20;97.10;;;;;;5036241;28;20051;-82
2020/12/01 02:13:38;;;;;;;23.25;6.70;;;7.10;97.10;;;;;;5036328;28;20036;-80
2020/12/01 02:16:05;;;;;;;16.80;6.60;;;7.10;97.10;;;;;;5034120;28;20052;-82
2020/12/01 02:18:35;;;;;;;16.63;6.03;;;7.10;97.10;;;;;;5035821;28;20043;-82
2020/12/01 02:21:42;;;;;;;17.05;4.65;;;7.10;97.10;;;;;;5044760;28;20037;-82
2020/12/01 02:24:17;;;;;;;25.67;5.38;;;7.00;97.10;;;;;;5015586;28;20060;-80
2020/12/01 02:26:49;;;;;;;21.35;4.28;;;7.00;97.10;;;;;;4999792;28;20539;-82
2020/12/01 02:29:19;;;;;;;15.13;2.65;;;6.90;97.10;;;;;;5035458;28;20049;-83
2020/12/01 02:31:45;;;;;;;11.73;1.85;;;6.90;97.10;;;;;;5040962;28;20049;-83
2020/12/01 02:34:15;;;;;;;18.73;2.63;;;6.80;97.20;;;;;;5054763;28;20032;-83
2020/12/01 02:36:42;;;;;;;14.00;1.65;;;6.90;97.20;;;;;;5037778;28;20044;-83
2020/12/01 02:39:09;;;;;;;20.48;2.03;;;6.80;97.20;;;;;;5052723;28;20499;-82
2020/12/01 02:41:39;;;;;;;12.68;1.25;;;6.80;97.20;;;;;;5052841;28;20036;-80
2020/12/01 02:44:07;;;;;;;14.15;1.10;;;6.80;97.20;;;;;;5034529;28;20035;-82
2020/12/01 02:46:37;;;;;;;15.60;1.17;;;6.70;97.20;;;;;;5039007;28;20055;-80
2020/12/01 02:49:05;;;;;;;15.38;1.23;;;6.70;97.10;;;;;;5052286;28;20049;-83
2020/12/01 02:51:33;;;;;;;9.30;0.90;;;6.60;97.10;;;;;;5056374;28;20028;-80
2020/12/01 02:54:00;;;;;;;7.50;0.80;;;6.50;97.10;;;;;;5069624;28;20044;-83
2020/12/01 02:56:26;;;;;;;8.35;0.50;;;6.40;97.10;;;;;;5035309;28;20041;-82
2020/12/01 02:58:53;;;;;;;13.00;1.00;;;6.40;97.10;;;;;;5055049;28;20057;-80
2020/12/01 03:01:20;;;;;;;11.15;0.75;;;6.30;97.20;;;;;;5038249;28;20050;-80
2020/12/01 03:03:46;;;;;;;13.02;0.65;;;6.30;97.20;;;;;;5044624;28;20056;-80
2020/12/01 03:06:15;;;;;;;11.27;0.80;;;6.20;97.20;;;;;;5021430;28;20060;-80
2020/12/01 03:08:42;;;;;;;8.00;0.68;;;6.20;97.20;;;;;;5037739;28;20047;-83
2020/12/01 03:11:09;;;;;;;11.38;0.60;;;6.10;97.20;;;;;;5036991;28;20029;-80
2020/12/01 03:13:36;;;;;;;18.02;0.90;;;6.10;97.20;;;;;;5038427;28;20032;-83
2020/12/01 03:16:10;;;;;;;9.30;0.60;;;6.00;97.20;;;;;;5039322;28;20060;-83
2020/12/01 03:18:39;;;;;;;18.45;1.38;;;6.00;97.30;;;;;;5055754;28;20055;-81
2020/12/01 03:21:06;;;;;;;11.52;0.90;;;6.00;97.40;;;;;;5046051;28;20056;-80
2020/12/01 03:23:33;;;;;;;13.80;1.02;;;6.10;97.50;;;;;;5060087;28;20067;-80
2020/12/01 03:26:01;;;;;;;23.55;1.00;;;6.10;97.50;;;;;;5074009;28;20045;-79
2020/12/01 03:28:29;;;;;;;9.07;0.70;;;6.10;97.50;;;;;;5035084;28;20435;-83
2020/12/01 03:30:56;;;;;;;26.45;1.35;;;6.10;97.50;;;;;;5072762;28;20395;-83
2020/12/01 03:33:22;;;;;;;21.75;1.48;;;6.10;97.50;;;;;;5054128;28;20364;-83
2020/12/01 03:35:49;;;;;;;10.27;0.90;;;6.10;97.40;;;;;;5038900;28;20043;-83
2020/12/01 03:38:15;;;;;;;17.35;1.00;;;6.10;97.50;;;;;;5055385;28;20055;-83
2020/12/01 03:40:43;;;;;;;20.20;1.55;;;6.10;97.50;;;;;;5055664;28;20052;-83
2020/12/01 03:43:10;;;;;;;15.13;1.10;;;6.10;97.50;;;;;;5045620;28;20032;-83
2020/12/01 03:45:37;;;;;;;15.73;1.10;;;6.10;97.60;;;;;;5055613;28;20037;-83
2020/12/01 03:48:04;;;;;;;16.30;0.90;;;6.10;97.70;;;;;;5038711;28;20048;-83
2020/12/01 03:50:30;;;;;;;25.33;1.95;;;6.20;97.70;;;;;;5039228;28;20036;-83
2020/12/01 03:52:57;;;;;;;16.48;0.90;;;6.20;97.60;;;;;;5013512;28;20040;-83
2020/12/01 03:55:25;;;;;;;21.73;1.40;;;6.20;97.70;;;;;;5046288;28;20036;-83
2020/12/01 03:57:53;;;;;;;20.52;1.45;;;6.30;97.70;;;;;;5041888;28;20040;-83
2020/12/01 04:00:22;;;;;;;18.10;1.58;;;6.30;97.70;;;;;;5055524;28;20041;-82
2020/12/01 04:02:49;;;;;;;25.83;1.58;;;6.40;97.70;;;;;;5054114;28;20051;-84
2020/12/01 04:05:18;;;;;;;19.52;1.50;;;6.40;98.00;;;;;;5070424;28;20048;-83
2020/12/01 04:07:45;;;;;;;14.23;1.40;;;6.40;97.80;;;;;;5019788;28;20071;-83
2020/12/01 04:10:16;;;;;;;12.07;1.05;;;6.50;97.80;;;;;;5038208;28;20502;-83
2020/12/01 04:12:43;;;;;;;14.55;1.35;;;6.50;97.70;;;;;;5045220;28;20562;-83
2020/12/01 04:15:11;;;;;;;17.45;1.27;;;6.50;97.80;;;;;;5037098;28;20044;-83
2020/12/01 04:17:37;;;;;;;10.45;0.68;;;6.60;97.80;;;;;;5046515;28;20045;-83
2020/12/01 04:20:06;;;;;;;11.55;0.70;;;6.60;97.80;;;;;;5038435;28;20039;-83
2020/12/01 04:22:33;;;;;;;17.05;0.73;;;6.60;97.80;;;;;;5045427;28;20032;-83
2020/12/01 04:25:01;;;;;;;17.67;1.00;;;6.70;97.80;;;;;;5052945;28;20039;-83
2020/12/01 04:27:27;;;;;;;8.02;0.60;;;6.70;97.80;;;;;;5037345;28;20052;-83
2020/12/01 04:29:54;;;;;;;17.05;1.10;;;6.80;97.80;;;;;;5020600;28;20055;-83
2020/12/01 04:32:20;;;;;;;10.90;0.70;;;6.70;97.80;;;;;;5037816;28;20041;-83
2020/12/01 04:34:47;;;;;;;9.60;0.65;;;6.70;97.70;;;;;;5051966;28;20037;-83
2020/12/01 04:37:13;;;;;;;14.20;0.75;;;6.70;97.70;;;;;;5052010;28;20048;-83
2020/12/01 04:39:40;;;;;;;9.00;0.93;;;6.70;97.80;;;;;;5051545;28;20782;-85
2020/12/01 04:42:06;;;;;;;8.90;0.68;;;6.80;97.90;;;;;;5034950;28;20032;-85
2020/12/01 04:44:41;;;;;;;15.40;1.10;;;6.80;97.90;;;;;;5032352;28;20032;-84
2020/12/01 04:47:27;;;;;;;13.90;0.98;;;6.90;97.90;;;;;;5037668;28;20047;-85
2020/12/01 04:50:15;;;;;;;15.20;0.70;;;6.90;97.90;;;;;;5036961;28;20032;-85
2020/12/01 04:52:56;;;;;;;17.00;0.90;;;6.90;97.80;;;;;;5043844;28;20024;-85
2020/12/01 04:55:41;;;;;;;14.75;0.98;;;6.90;97.80;;;;;;5054166;28;20032;-85
2020/12/01 04:58:33;;;;;;;13.20;0.90;;;6.90;97.80;;;;;;5048824;28;20483;-84
2020/12/01 05:01:25;;;;;;;11.25;0.85;;;6.90;97.80;;;;;;5045381;28;20514;-84
2020/12/01 05:04:37;;;;;;;10.43;0.60;;;6.90;97.90;;;;;;5040257;28;20033;-85
2020/12/01 05:07:26;;;;;;;17.88;0.93;;;7.00;98.00;;;;;;5060095;28;20048;-85
2020/12/01 05:09:56;;;;;;;14.55;0.80;;;6.90;97.90;;;;;;5028827;28;20044;-85
2020/12/01 05:12:31;;;;;;;12.93;1.05;;;7.00;97.90;;;;;;5064712;28;20037;-85
2020/12/01 05:15:07;;;;;;;20.83;0.90;;;7.00;97.90;;;;;;5036197;28;20604;-85
2020/12/01 05:18:07;;;;;;;14.48;0.65;;;7.00;97.90;;;;;;5053084;28;20403;-83
2020/12/01 05:20:44;;;;;;;20.52;0.90;;;7.10;97.90;;;;;;5047984;28;20044;-82
2020/12/01 05:23:13;;;;;;;13.82;0.90;;;7.00;97.90;;;;;;5070487;28;20067;-85
2020/12/01 05:25:39;;;;;;;13.95;0.68;;;7.10;97.90;;;;;;5038059;28;20036;-85
2020/12/01 05:28:08;;;;;;;18.83;1.05;;;7.10;97.90;;;;;;5026299;28;20699;-89
2020/12/01 05:30:35;;;;;;;19.75;1.05;;;7.10;97.90;;;;;;5037256;28;20395;-87
2020/12/01 05:33:23;;;;;;;12.77;0.82;;;7.10;97.90;;;;;;5050963;28;20234;-84
2020/12/01 05:36:14;;;;;;;15.40;1.40;;;7.10;97.90;;;;;;5053745;28;20047;-83
2020/12/01 05:38:41;;;;;;;11.68;0.90;;;7.20;98.00;;;;;;5036622;28;20039;-85
2020/12/01 05:41:45;;;;;;;8.88;0.80;;;7.20;97.90;;;;;;5050929;28;20040;-84
2020/12/01 05:44:27;;;;;;;39.80;14.80;;;7.20;97.90;;;;;;5033807;28;20036;-83
2020/12/01 05:47:08;;;;;;;27.23;9.85;;;7.20;97.90;;;;;;5029668;28;20036;-84
2020/12/01 05:49:50;;;;;;;15.27;4.20;;;7.20;97.90;;;;;;5051261;28;20036;-84
2020/12/01 05:52:30;;;;;;;15.73;2.08;;;7.10;97.90;;;;;;5069128;28;20047;-84
2020/12/01 05:55:24;;;;;;;12.27;1.85;;;7.20;97.90;;;;;;5046986;28;20032;-83
2020/12/01 05:58:12;;;;;;;16.33;1.75;;;7.20;97.90;;;;;;5048862;28;20677;-81
2020/12/01 06:00:42;;;;;;;6.35;0.98;;;7.10;97.90;;;;;;5030406;28;20036;-84
2020/12/01 06:03:17;;;;;;;9.60;1.15;;;7.20;97.90;;;;;;5031985;28;20032;-84
2020/12/01 06:05:48;;;;;;;14.65;1.05;;;7.10;97.90;;;;;;5066774;28;20052;-83
2020/12/01 06:08:57;;;;;;;16.02;1.80;;;7.20;98.00;;;;;;5036024;28;20032;-82
2020/12/01 06:11:36;;;;;;;9.50;1.27;;;7.20;98.00;;;;;;5053090;28;20513;-83
2020/12/01 06:14:18;;;;;;;16.70;2.28;;;7.20;98.00;;;;;;5035250;28;20036;-81
2020/12/01 06:17:01;;;;;;;17.77;3.33;;;7.30;98.00;;;;;;5036666;28;20036;-80
2020/12/01 06:19:43;;;;;;;22.23;2.80;;;7.30;98.00;;;;;;5067490;28;20040;-82
2020/12/01 06:22:09;;;;;;;23.63;2.95;;;7.30;98.00;;;;;;5035530;28;20509;-82
2020/12/01 06:24:56;;;;;;;25.50;3.33;;;7.30;98.00;;;;;;5049999;28;20396;-82
2020/12/01 06:27:41;;;;;;;14.52;2.50;;;7.30;98.00;;;;;;5059136;28;20802;-83
2020/12/01 06:30:45;;;;;;;25.10;4.15;;;7.40;98.00;;;;;;5035996;28;20491;-82
2020/12/01 06:33:36;;;;;;;14.40;3.15;;;7.40;98.10;;;;;;5034980;28;20036;-82
2020/12/01 06:36:42;;;;;;;12.23;3.15;;;7.40;98.00;;;;;;5036021;28;20036;-82
2020/12/01 06:39:42;;;;;;;14.40;4.07;;;7.40;98.00;;;;;;5035720;28;20041;-82
2020/12/01 06:42:12;;;;;;;19.48;7.65;;;7.50;98.10;;;;;;5050186;28;20036;-82
2020/12/01 06:44:42;;;;;;;20.42;6.50;;;7.40;98.10;;;;;;5034803;28;20036;-82
2020/12/01 06:47:09;;;;;;;14.38;6.32;;;7.50;98.10;;;;;;5059551;28;20048;-81
2020/12/01 06:49:37;;;;;;;11.60;4.63;;;7.50;98.40;;;;;;5036421;28;20043;-82
2020/12/01 06:52:13;;;;;;;17.25;5.63;;;7.60;98.10;;;;;;5036695;28;20045;-82
2020/12/01 06:54:55;;;;;;;15.70;5.50;;;7.60;98.20;;;;;;5068106;28;20047;-82
2020/12/01 06:57:30;;;;;;;13.55;5.82;;;7.70;98.20;;;;;;5041140;28;20411;-82
2020/12/01 06:59:57;;;;;;;16.40;5.47;;;7.70;98.20;;;;;;5059202;28;20052;-82
2020/12/01 07:02:44;;;;;;;21.60;6.97;;;7.70;98.20;;;;;;5069814;28;20040;-82
2020/12/01 07:05:45;;;;;;;12.80;4.72;;;7.70;98.20;;;;;;5035380;28;20040;-82
2020/12/01 07:08:24;;;;;;;20.92;7.88;;;7.80;98.20;;;;;;5042958;28;20036;-82
2020/12/01 07:11:01;;;;;;;19.08;6.05;;;7.80;98.20;;;;;;5072194;28;20037;-84
2020/12/01 07:13:48;;;;;;;23.58;6.65;;;7.80;98.20;;;;;;5055138;28;20024;-84
2020/12/01 07:16:37;;;;;;;20.27;6.90;;;7.80;98.20;;;;;;5071360;28;20360;-84
2020/12/01 07:19:37;;;;;;;20.10;6.72;;;7.90;98.20;;;;;;5039174;28;20298;-82
2020/12/01 07:22:16;;;;;;;16.38;6.95;;;7.90;98.20;;;;;;5055983;28;20372;-82
2020/12/01 07:25:03;;;;;;;16.88;7.00;;;7.90;98.50;;;;;;5040983;28;20040;-82
2020/12/01 07:28:00;;;;;;;11.88;5.15;;;7.90;98.20;;;;;;5055289;28;20043;-84
2020/12/01 07:30:31;;;;;;;14.45;6.10;;;7.90;98.20;;;;;;5066516;28;20053;-82
2020/12/01 07:32:57;;;;;;;14.75;5.47;;;7.90;98.30;;;;;;5055221;28;20475;-81
2020/12/01 07:35:44;;;;;;;9.70;5.18;;;8.00;98.30;;;;;;5054851;28;20052;-83
2020/12/01 07:38:55;;;;;;;12.52;5.25;;;8.00;98.30;;;;;;5045627;28;20029;-82
2020/12/01 07:41:27;;;;;;;10.45;4.78;;;8.00;98.30;;;;;;5054671;28;20051;-83
2020/12/01 07:44:01;;;;;;;16.52;5.90;;;8.00;98.30;;;;;;5071153;28;20059;-82
2020/12/01 07:46:28;;;;;;;18.13;6.45;;;8.10;98.40;;;;;;5054985;28;20056;-82
2020/12/01 07:48:59;;;;;;;15.52;5.25;;;8.10;98.40;;;;;;5055493;28;20411;-81
2020/12/01 07:51:29;;;;;;;7.03;3.30;;;8.10;98.40;;;;;;5055780;28;20037;-82
2020/12/01 07:53:57;;;;;;;9.15;4.30;;;8.20;98.40;;;;;;5054555;28;20384;-82
2020/12/01 07:56:27;;;;;;;12.50;3.78;;;8.20;98.40;;;;;;5004595;28;20025;-82
2020/12/01 07:59:12;;;;;;;7.78;3.05;;;8.20;98.40;;;;;;5038985;28;20035;-82
2020/12/01 08:01:41;;;;;;;12.73;2.75;;;8.20;98.40;;;;;;5054787;28;20044;-81
2020/12/01 08:04:13;;;;;;;5.18;1.80;;;8.30;98.50;;;;;;5050123;28;20479;-80
2020/12/01 08:06:42;;;;;;;9.10;1.98;;;8.30;98.50;;;;;;5053637;28;20939;-82
2020/12/01 08:09:23;;;;;;;8.05;1.10;;;8.30;98.50;;;;;;5035879;28;20044;-80
2020/12/01 08:11:53;;;;;;;13.13;1.17;;;8.30;98.50;;;;;;5055427;28;20060;-80
2020/12/01 08:14:20;;;;;;;17.77;1.70;;;8.40;98.50;;;;;;5037614;28;20044;-80
2020/12/01 08:17:04;;;;;;;18.58;1.20;;;8.50;98.50;;;;;;5038269;28;20037;-81
2020/12/01 08:19:32;;;;;;;10.85;1.23;;;8.50;98.50;;;;;;5067762;28;20402;-80
2020/12/01 08:22:00;;;;;;;24.75;1.48;;;8.50;98.50;;;;;;5037663;28;20052;-80
2020/12/01 08:24:30;;;;;;;25.73;1.60;;;8.50;98.40;;;;;;5052172;28;20040;-81
2020/12/01 08:27:16;;;;;;;11.95;1.15;;;8.50;98.40;;;;;;5053199;28;20048;-80
2020/12/01 08:29:44;;;;;;;24.40;1.83;;;8.50;98.30;;;;;;5052884;28;20055;-80
2020/12/01 08:32:29;;;;;;;36.40;2.25;;;8.50;98.40;;;;;;5070487;28;20042;-80
2020/12/01 08:35:15;;;;;;;26.38;2.72;;;8.50;98.30;;;;;;5069184;28;20776;-79
2020/12/01 08:38:02;;;;;;;29.10;2.60;;;8.50;98.30;;;;;;5054136;28;20043;-79
2020/12/01 08:40:28;;;;;;;24.65;2.20;;;8.50;98.30;;;;;;5037474;28;20040;-80
2020/12/01 08:42:59;;;;;;;28.60;2.58;;;8.50;98.30;;;;;;5053482;28;20044;-79
2020/12/01 08:46:03;;;;;;;50.88;3.25;;;8.50;98.40;;;;;;5053192;28;20047;-80
2020/12/01 08:49:06;;;;;;;34.53;2.60;;;8.50;98.30;;;;;;5049337;28;20055;-80
2020/12/01 08:51:57;;;;;;;36.88;2.30;;;8.50;98.30;;;;;;5053665;28;20036;-80
2020/12/01 08:54:28;;;;;;;49.60;4.53;;;8.50;98.30;;;;;;5068721;28;20048;-81
2020/12/01 08:57:04;;;;;;;29.83;2.88;;;8.50;98.30;;;;;;5037151;28;20032;-79
2020/12/01 08:59:52;;;;;;;31.58;2.25;;;8.50;98.30;;;;;;5053785;28;20047;-79
2020/12/01 09:02:21;;;;;;;43.30;3.72;;;8.50;98.30;;;;;;5036849;28;20029;-79
2020/12/01 09:04:59;;;;;;;35.90;2.83;;;8.50;98.30;;;;;;5042014;28;20044;-79
2020/12/01 09:07:34;;;;;;;29.20;2.55;;;8.50;98.40;;;;;;5054038;28;20052;-79
2020/12/01 09:10:32;;;;;;;35.05;3.20;;;8.60;98.40;;;;;;5053998;28;20040;-79
2020/12/01 09:13:28;;;;;;;37.70;2.88;;;8.60;98.40;;;;;;5060417;28;20048;-80
2020/12/01 09:16:16;;;;;;;41.13;2.80;;;8.60;98.40;;;;;;5049327;28;20048;-79
2020/12/01 09:24:03;;;;;;;34.45;3.53;;;8.50;98.30;;;;;;5038845;28;20053;-80
2020/12/01 09:26:30;;;;;;;28.13;2.42;;;8.60;98.30;;;;;;5053301;28;20040;-80
2020/12/01 09:28:57;;;;;;;37.10;3.15;;;8.50;98.30;;;;;;5037078;28;20044;-80
2020/12/01 09:31:25;;;;;;;33.75;3.25;;;8.50;98.30;;;;;;5036637;28;20036;-80
2020/12/01 09:33:55;;;;;;;28.95;2.92;;;8.60;98.30;;;;;;5052149;28;20032;-80
2020/12/01 09:36:26;;;;;;;41.45;3.08;;;8.60;98.40;;;;;;5052655;28;20039;-80
2020/12/01 09:38:52;;;;;;;33.17;3.15;;;8.60;98.30;;;;;;5053477;28;20032;-80
2020/12/01 09:41:21;;;;;;;31.98;3.17;;;8.60;98.40;;;;;;5041897;28;20045;-80
2020/12/01 09:44:04;;;;;;;47.03;3.92;;;8.60;98.40;;;;;;5035087;28;20047;-78
2020/12/01 09:46:38;;;;;;;40.30;4.53;;;8.60;98.30;;;;;;5036200;28;20071;-80
2020/12/01 09:49:04;;;;;;;30.55;3.28;;;8.70;98.30;;;;;;5036628;28;20043;-80
2020/12/01 09:51:31;;;;;;;39.92;3.50;;;8.70;98.30;;;;;;5053040;28;20391;-77
2020/12/01 09:56:55;;;;;;;52.85;10.25;;;8.70;98.30;;;;;;5069765;28;20054;-79
2020/12/01 10:13:00;;;;;;;38.03;3.90;;;8.80;98.20;;;;;;5053182;28;20043;-79
2020/12/01 10:15:49;;;;;;;44.30;3.95;;;8.80;98.20;;;;;;5055590;28;20041;-79
2020/12/01 10:34:32;;;;;;;45.17;4.43;;;8.80;97.80;;;;;;5050318;28;20047;-84
2020/12/01 10:36:59;;;;;;;28.05;2.63;;;8.80;97.90;;;;;;5035904;28;20028;-81
2020/12/01 10:39:25;;;;;;;28.10;2.95;;;8.80;97.90;;;;;;5038673;28;20037;-81
2020/12/01 10:41:52;;;;;;;31.20;3.83;;;8.80;97.90;;;;;;5038159;28;20049;-81
2020/12/01 10:44:19;;;;;;;33.88;3.53;;;8.90;97.90;;;;;;5070352;28;20040;-82
2020/12/01 10:46:48;;;;;;;34.65;3.47;;;8.90;97.80;;;;;;5072810;28;20040;-82
2020/12/01 10:49:16;;;;;;;29.05;2.83;;;8.90;97.80;;;;;;5056193;28;20044;-82
2020/12/01 10:51:47;;;;;;;35.20;3.35;;;8.90;97.70;;;;;;5044836;28;20109;-82
2020/12/01 10:54:13;;;;;;;38.85;3.80;;;8.90;97.60;;;;;;5070890;28;20399;-81
2020/12/01 10:56:40;;;;;;;35.72;4.35;;;8.90;97.50;;;;;;5055883;28;20048;-79
2020/12/01 10:59:06;;;;;;;32.72;3.30;;;8.90;97.50;;;;;;5039527;28;20040;-80
2020/12/01 11:01:33;;;;;;;31.17;4.00;;;8.80;97.50;;;;;;5040109;28;20047;-80
2020/12/01 11:04:01;;;;;;;39.60;3.47;;;8.90;97.20;;;;;;5037711;28;20812;-80
2020/12/01 11:06:27;;;;;;;35.53;3.28;;;8.90;97.20;;;;;;5038566;28;20055;-80
2020/12/01 11:08:54;;;;;;;41.95;3.53;;;8.90;97.20;;;;;;5056060;28;20024;-80
2020/12/01 11:11:20;;;;;;;44.30;4.75;;;8.90;97.20;;;;;;5039470;28;20048;-81
2020/12/01 11:13:47;;;;;;;33.35;2.97;;;9.00;97.10;;;;;;5019161;28;20037;-80
2020/12/01 11:16:13;;;;;;;35.08;3.17;;;9.00;97.10;;;;;;5055101;28;20037;-80
2020/12/01 11:18:41;;;;;;;34.80;2.97;;;9.00;97.00;;;;;;5038415;28;20509;-79
2020/12/01 11:21:08;;;;;;;33.45;3.05;;;9.00;97.10;;;;;;5073670;28;20060;-82
2020/12/01 11:23:34;;;;;;;30.52;3.38;;;9.10;96.90;;;;;;5052567;28;20045;-82
2020/12/01 11:26:01;;;;;;;33.70;2.97;;;9.10;96.70;;;;;;5046647;28;20419;-78
2020/12/01 11:28:27;;;;;;;31.40;3.78;;;9.10;96.70;;;;;;5036890;28;20036;-77
2020/12/01 11:30:54;;;;;;;26.88;3.05;;;9.10;96.50;;;;;;5036034;28;20048;-79
2020/12/01 11:33:20;;;;;;;27.65;3.38;;;9.10;96.50;;;;;;5035460;28;20494;-77
2020/12/01 11:35:47;;;;;;;31.77;4.00;;;9.10;96.80;;;;;;5018800;28;20040;-80
2020/12/01 11:38:15;;;;;;;27.00;3.03;;;9.10;96.40;;;;;;5050797;28;20032;-79
2020/12/01 11:40:41;;;;;;;23.75;2.72;;;9.20;96.20;;;;;;5036227;28;20036;-78
2020/12/01 11:43:07;;;;;;;24.30;3.17;;;9.20;96.10;;;;;;5069986;28;20049;-81
2020/12/01 11:45:34;;;;;;;30.15;2.88;;;9.20;96.00;;;;;;5070109;28;20048;-77
2020/12/01 11:48:00;;;;;;;28.88;3.03;;;9.20;95.80;;;;;;5070127;28;20044;-78
2020/12/01 11:50:27;;;;;;;27.30;3.47;;;9.30;95.60;;;;;;5052471;28;20380;-80
2020/12/01 11:52:53;;;;;;;29.52;3.15;;;9.30;95.50;;;;;;5050528;28;20033;-77
2020/12/01 11:55:20;;;;;;;33.75;4.78;;;9.30;95.30;;;;;;5067538;28;20032;-78
2020/12/01 11:57:46;;;;;;;38.83;8.70;;;9.30;95.10;;;;;;5050029;28;20774;-78
2020/12/01 12:00:21;;;;;;;27.17;4.22;;;9.40;95.10;;;;;;5035471;28;20036;-77
2020/12/01 12:02:47;;;;;;;24.38;2.78;;;9.30;95.20;;;;;;5068489;28;20024;-79
2020/12/01 12:05:15;;;;;;;31.65;3.38;;;9.40;95.20;;;;;;5075582;28;20047;-79
2020/12/01 12:07:41;;;;;;;31.13;3.90;;;9.40;95.10;;;;;;5059431;28;20048;-79
2020/12/01 12:10:08;;;;;;;24.02;2.00;;;9.40;94.80;;;;;;5056909;28;20055;-79
2020/12/01 12:12:35;;;;;;;30.10;3.22;;;9.40;94.90;;;;;;5018018;28;20032;-77
2020/12/01 12:15:03;;;;;;;23.83;2.55;;;9.40;94.70;;;;;;5066538;28;20049;-78
2020/12/01 12:17:29;;;;;;;29.92;4.60;;;9.50;94.70;;;;;;5026743;28;20471;-78
2020/12/01 12:19:56;;;;;;;29.75;3.08;;;9.50;94.70;;;;;;5065499;28;20063;-78
2020/12/01 12:22:22;;;;;;;33.45;3.72;;;9.50;94.50;;;;;;5065216;28;20041;-78
2020/12/01 12:24:48;;;;;;;26.65;3.42;;;9.50;94.30;;;;;;5046515;28;20495;-78
2020/12/01 12:27:15;;;;;;;34.50;3.60;;;9.40;94.20;;;;;;5036524;28;20037;-77
2020/12/01 12:29:41;;;;;;;29.30;3.03;;;9.50;94.20;;;;;;5039164;28;20044;-78
2020/12/01 12:32:08;;;;;;;18.92;2.28;;;9.40;93.80;;;;;;5048939;28;20036;-78
2020/12/01 12:34:34;;;;;;;19.65;2.42;;;9.40;93.80;;;;;;5038033;28;20036;-78
2020/12/01 12:37:01;;;;;;;24.02;2.55;;;9.40;94.10;;;;;;5033154;28;20036;-78
2020/12/01 12:39:27;;;;;;;25.88;2.83;;;9.40;94.10;;;;;;5065652;28;20048;-78
2020/12/01 12:41:54;;;;;;;25.63;2.65;;;9.50;93.90;;;;;;5065797;28;20041;-78
2020/12/01 12:44:20;;;;;;;25.75;2.45;;;9.50;94.00;;;;;;5030142;28;20041;-78
2020/12/01 12:46:47;;;;;;;20.48;2.60;;;9.50;94.00;;;;;;5040612;28;20048;-78
2020/12/01 12:49:14;;;;;;;28.80;2.92;;;9.50;94.00;;;;;;5032927;28;20495;-78
2020/12/01 12:51:40;;;;;;;33.72;3.10;;;9.50;93.90;;;;;;5048452;28;20053;-78
2020/12/01 12:54:07;;;;;;;29.77;2.53;;;9.60;93.70;;;;;;5046459;28;20033;-78
2020/12/01 12:56:33;;;;;;;28.00;3.35;;;9.60;93.50;;;;;;5065546;28;20052;-80
2020/12/01 12:59:00;;;;;;;24.58;2.63;;;9.70;93.20;;;;;;5032420;28;20032;-78
2020/12/01 13:01:26;;;;;;;17.40;1.67;;;9.70;93.20;;;;;;5067459;28;20040;-78
2020/12/01 13:03:53;;;;;;;20.85;2.42;;;9.70;93.30;;;;;;5030683;28;20447;-78
2020/12/01 13:06:19;;;;;;;20.60;2.95;;;9.70;93.30;;;;;;5030443;28;20047;-79
2020/12/01 13:08:47;;;;;;;23.35;2.10;;;9.60;93.20;;;;;;5064555;28;20522;-79
2020/12/01 13:11:15;;;;;;;18.88;2.08;;;9.60;93.40;;;;;;5064943;28;20048;-80
2020/12/01 13:13:42;;;;;;;26.13;2.47;;;9.60;93.40;;;;;;5064322;28;20502;-79
2020/12/01 13:16:09;;;;;;;18.67;2.55;;;9.70;93.30;;;;;;5047513;28;20527;-79
2020/12/01 13:18:36;;;;;;;28.92;2.33;;;9.60;93.00;;;;;;5049092;28;20495;-85
2020/12/01 13:21:02;;;;;;;21.58;2.10;;;9.60;93.00;;;;;;5048848;28;20055;-81
2020/12/01 13:23:30;;;;;;;22.25;2.58;;;9.60;93.10;;;;;;5032928;28;20068;-80
2020/12/01 13:25:56;;;;;;;20.40;2.67;;;9.60;93.10;;;;;;5065191;28;20056;-84
2020/12/01 13:28:23;;;;;;;17.55;2.28;;;9.60;93.00;;;;;;5032058;28;20388;-82
2020/12/01 13:30:49;;;;;;;28.05;2.75;;;9.60;92.80;;;;;;5032289;28;20048;-88
2020/12/01 13:33:16;;;;;;;19.27;2.30;;;9.70;93.00;;;;;;5021280;28;20404;-82
2020/12/01 13:35:43;;;;;;;14.80;1.73;;;9.70;92.90;;;;;;5047684;28;20053;-85
2020/12/01 13:38:09;;;;;;;16.90;2.13;;;9.80;92.80;;;;;;5064569;28;20701;-80
2020/12/01 13:40:36;;;;;;;13.68;2.53;;;10.00;92.90;;;;;;5048214;28;20049;-82
2020/12/01 13:43:02;;;;;;;18.95;2.67;;;10.00;92.70;;;;;;5030619;28;20051;-82
2020/12/01 13:45:29;;;;;;;15.70;1.65;;;10.10;92.50;;;;;;5046931;28;20036;-81
2020/12/01 13:47:55;;;;;;;26.30;2.65;;;10.20;92.50;;;;;;5031581;28;20451;-81
2020/12/01 13:50:24;;;;;;;16.35;2.53;;;10.10;92.10;;;;;;5048854;28;20067;-81